createdAt,value
2023-03-29T00:00:50.924Z,7.10
2023-03-29T00:03:17.626Z,6.73
2023-03-29T00:05:44.790Z,6.63
2023-03-29T00:08:14.401Z,6.70
2023-03-29T00:10:42.044Z,6.60
2023-03-29T00:13:08.522Z,7.33
2023-03-29T00:15:34.954Z,7.03
2023-03-29T00:18:01.410Z,7.10
2023-03-29T00:20:28.842Z,6.17
2023-03-29T00:22:55.720Z,7.10
2023-03-29T00:25:22.168Z,6.43
2023-03-29T00:27:48.857Z,6.30
2023-03-29T00:30:15.934Z,6.10
2023-03-29T00:32:42.854Z,5.93
2023-03-29T00:35:10.897Z,5.70
2023-03-29T00:37:38.010Z,6.50
2023-03-29T00:40:11.661Z,6.20
2023-03-29T00:42:38.325Z,5.87
2023-03-29T00:45:25.203Z,5.53
2023-03-29T00:47:53.332Z,6.40
2023-03-29T00:50:25.820Z,6.43
2023-03-29T00:53:01.476Z,7.23
2023-03-29T00:55:29.426Z,6.80
2023-03-29T00:57:56.355Z,6.90
2023-03-29T01:00:24.654Z,6.80
2023-03-29T01:02:54.005Z,6.47
2023-03-29T01:05:24.234Z,6.17
2023-03-29T01:07:57.863Z,5.50
2023-03-29T01:10:44.784Z,6.27
2023-03-29T01:13:14.569Z,6.27
2023-03-29T01:15:42.148Z,5.83
2023-03-29T01:18:09.410Z,5.53
2023-03-29T01:20:45.155Z,6.23
2023-03-29T01:23:38.112Z,5.93
2023-03-29T01:26:25.024Z,5.97
2023-03-29T01:29:03.519Z,6.00
2023-03-29T01:31:36.970Z,5.80
2023-03-29T01:34:25.517Z,5.70
2023-03-29T01:36:58.722Z,5.53
2023-03-29T01:39:25.232Z,5.43
2023-03-29T01:42:02.109Z,5.37
2023-03-29T01:44:31.752Z,5.57
2023-03-29T01:47:08.664Z,6.13
2023-03-29T01:49:40.047Z,5.13
2023-03-29T01:52:20.373Z,5.20
2023-03-29T01:54:52.805Z,4.40
2023-03-29T01:57:21.671Z,5.10
2023-03-29T01:59:52.940Z,4.97
2023-03-29T02:02:20.984Z,5.63
2023-03-29T02:04:50.170Z,4.80
2023-03-29T02:07:18.829Z,4.17
2023-03-29T02:09:46.181Z,4.87
2023-03-29T02:12:14.111Z,5.30
2023-03-29T02:14:40.533Z,5.07
2023-03-29T02:17:20.843Z,5.10
2023-03-29T02:19:50.206Z,5.67
2023-03-29T02:22:22.045Z,5.33
2023-03-29T02:24:50.055Z,4.87
2023-03-29T02:27:16.668Z,4.80
2023-03-29T02:29:43.188Z,4.50
2023-03-29T02:32:14.208Z,4.57
2023-03-29T02:34:54.656Z,4.63
2023-03-29T02:37:24.327Z,5.30
2023-03-29T02:39:51.380Z,5.20
2023-03-29T02:42:20.261Z,4.67
2023-03-29T02:44:49.491Z,6.07
2023-03-29T02:47:18.422Z,4.83
2023-03-29T02:49:44.919Z,4.10
2023-03-29T02:52:16.546Z,4.43
2023-03-29T02:54:45.790Z,4.37
2023-03-29T02:57:12.445Z,4.93
2023-03-29T02:59:40.771Z,4.87
2023-03-29T03:02:07.230Z,5.57
2023-03-29T03:04:35.464Z,5.33
2023-03-29T03:07:02.179Z,4.90
2023-03-29T03:09:28.698Z,5.67
2023-03-29T03:11:55.370Z,5.33
2023-03-29T03:14:23.790Z,4.90
2023-03-29T03:16:50.536Z,4.90
2023-03-29T03:19:17.150Z,4.87
2023-03-29T03:21:43.959Z,4.97
2023-03-29T03:24:10.372Z,4.70
2023-03-29T03:26:38.196Z,4.87
2023-03-29T03:29:06.244Z,4.50
2023-03-29T03:31:53.925Z,4.93
2023-03-29T03:34:39.659Z,4.60
2023-03-29T03:37:06.090Z,4.73
2023-03-29T03:39:34.303Z,4.60
2023-03-29T03:42:02.608Z,4.80
2023-03-29T03:44:29.163Z,4.47
2023-03-29T03:47:18.899Z,4.83
2023-03-29T03:49:46.543Z,4.70
2023-03-29T03:52:14.132Z,5.00
2023-03-29T03:54:40.819Z,4.97
2023-03-29T03:57:25.976Z,4.70
2023-03-29T03:59:53.063Z,4.57
2023-03-29T04:02:28.168Z,5.00
2023-03-29T04:04:54.985Z,4.60
2023-03-29T04:07:27.576Z,4.67
2023-03-29T04:10:01.080Z,5.13
2023-03-29T04:12:44.838Z,4.53
2023-03-29T04:15:12.151Z,4.93
2023-03-29T04:17:44.202Z,5.70
2023-03-29T04:20:20.429Z,5.60
2023-03-29T04:22:47.151Z,5.13
2023-03-29T04:25:13.856Z,5.63
2023-03-29T04:27:46.360Z,6.57
2023-03-29T04:30:30.658Z,6.33
2023-03-29T04:33:12.426Z,6.72
2023-03-29T04:35:42.354Z,6.27
2023-03-29T04:38:12.995Z,7.17
2023-03-29T04:40:40.621Z,6.97
2023-03-29T04:43:27.468Z,7.40
2023-03-29T04:46:00.783Z,7.63
2023-03-29T04:48:46.923Z,8.27
2023-03-29T04:51:13.880Z,8.53
2023-03-29T04:53:41.044Z,8.63
2023-03-29T04:56:08.018Z,8.30
2023-03-29T04:58:54.775Z,8.53
2023-03-29T05:01:21.873Z,7.93
2023-03-29T05:03:56.784Z,7.90
2023-03-29T05:06:29.229Z,8.27
2023-03-29T05:08:55.697Z,8.30
2023-03-29T05:11:31.609Z,8.70
2023-03-29T05:14:02.366Z,9.73
2023-03-29T05:16:31.822Z,9.33
2023-03-29T05:18:59.500Z,9.10
2023-03-29T05:21:26.581Z,8.83
2023-03-29T05:23:53.321Z,8.40
2023-03-29T05:26:47.987Z,8.47
2023-03-29T05:29:14.465Z,7.97
2023-03-29T05:31:43.519Z,7.40
2023-03-29T05:34:10.026Z,8.33
2023-03-29T05:36:45.532Z,7.63
2023-03-29T05:39:12.618Z,8.07
2023-03-29T05:41:40.346Z,8.43
2023-03-29T05:44:25.227Z,7.50
2023-03-29T05:46:57.870Z,8.33
2023-03-29T05:49:24.380Z,7.07
2023-03-29T05:52:02.431Z,7.53
2023-03-29T05:54:30.895Z,7.70
2023-03-29T05:56:57.844Z,7.50
2023-03-29T05:59:24.543Z,8.00
2023-03-29T06:01:52.016Z,8.10
2023-03-29T06:04:20.773Z,7.67
2023-03-29T06:07:04.708Z,6.33
2023-03-29T06:09:32.113Z,7.60
2023-03-29T06:12:01.896Z,6.35
2023-03-29T06:14:41.594Z,6.37
2023-03-29T06:17:19.823Z,6.35
2023-03-29T06:19:47.569Z,6.87
2023-03-29T06:22:15.050Z,6.53
2023-03-29T06:24:42.568Z,6.57
2023-03-29T06:27:17.633Z,6.73
2023-03-29T06:29:44.071Z,6.50
2023-03-29T06:32:11.073Z,6.63
2023-03-29T06:34:50.843Z,6.30
2023-03-29T06:37:27.475Z,6.60
2023-03-29T06:40:06.362Z,6.33
2023-03-29T06:42:42.077Z,5.67
2023-03-29T06:45:29.433Z,5.35
2023-03-29T06:47:56.582Z,5.00
2023-03-29T06:50:23.853Z,4.40
2023-03-29T06:53:17.025Z,4.90
2023-03-29T06:55:52.587Z,5.47
2023-03-29T06:58:40.906Z,5.90
2023-03-29T07:01:37.384Z,5.43
2023-03-29T07:04:12.079Z,5.75
2023-03-29T07:07:01.606Z,5.90
2023-03-29T07:09:32.194Z,4.70
2023-03-29T07:12:31.385Z,6.05
2023-03-29T07:15:00.655Z,5.40
2023-03-29T07:17:49.644Z,4.72
2023-03-29T07:20:16.715Z,5.18
2023-03-29T07:22:51.075Z,4.90
2023-03-29T07:25:18.821Z,4.63
2023-03-29T07:27:46.345Z,4.43
2023-03-29T07:30:14.339Z,5.07
2023-03-29T07:32:41.483Z,5.10
2023-03-29T07:35:31.045Z,5.68
2023-03-29T07:37:59.076Z,5.75
2023-03-29T07:40:27.218Z,4.75
2023-03-29T07:42:57.052Z,4.70
2023-03-29T07:45:26.691Z,4.70
2023-03-29T07:48:05.552Z,4.68
2023-03-29T07:50:46.145Z,5.70
2023-03-29T07:53:13.112Z,5.45
2023-03-29T07:55:47.367Z,5.47
2023-03-29T07:58:32.690Z,4.78
2023-03-29T08:01:02.414Z,4.75
2023-03-29T08:03:58.639Z,5.72
2023-03-29T08:06:45.560Z,6.40
2023-03-29T08:09:12.153Z,7.78
2023-03-29T08:11:42.362Z,6.00
2023-03-29T08:14:26.476Z,5.32
2023-03-29T08:17:01.343Z,5.32
2023-03-29T08:19:28.451Z,5.38
2023-03-29T08:22:03.822Z,5.03
2023-03-29T08:24:47.964Z,4.60
2023-03-29T08:27:14.636Z,4.32
2023-03-29T08:29:41.177Z,4.63
2023-03-29T08:32:07.607Z,4.03
2023-03-29T08:34:35.522Z,4.18
2023-03-29T08:37:16.389Z,4.80
2023-03-29T08:39:46.142Z,4.25
2023-03-29T08:42:41.806Z,5.00
2023-03-29T08:45:18.394Z,4.40
2023-03-29T08:47:58.935Z,3.75
2023-03-29T08:50:31.311Z,4.10
2023-03-29T08:53:00.477Z,4.70
2023-03-29T08:56:02.475Z,4.22
2023-03-29T08:58:52.483Z,4.85
2023-03-29T09:01:20.814Z,4.43
2023-03-29T09:04:04.732Z,4.60
2023-03-29T09:06:54.493Z,4.78
2023-03-29T09:09:31.634Z,4.70
2023-03-29T09:12:16.937Z,5.28
2023-03-29T09:15:09.090Z,5.35
2023-03-29T09:17:49.577Z,4.93
2023-03-29T09:20:21.412Z,4.90
2023-03-29T09:22:47.975Z,4.82
2023-03-29T09:25:50.720Z,4.78
2023-03-29T09:28:27.060Z,4.47
2023-03-29T09:31:07.785Z,4.60
2023-03-29T09:33:43.175Z,4.70
2023-03-29T09:36:25.293Z,5.90
2023-03-29T09:38:54.458Z,4.95
2023-03-29T09:41:23.462Z,4.70
2023-03-29T09:43:51.117Z,4.57
2023-03-29T09:46:23.786Z,4.80
2023-03-29T09:48:50.502Z,4.70
2023-03-29T09:51:17.766Z,4.80
2023-03-29T09:53:44.558Z,5.00
2023-03-29T09:56:24.053Z,4.63
2023-03-29T09:58:56.427Z,5.20
2023-03-29T10:01:22.952Z,4.72
2023-03-29T10:03:51.565Z,4.97
2023-03-29T10:06:20.293Z,6.25
2023-03-29T10:08:58.412Z,4.63
2023-03-29T10:11:36.859Z,5.28
2023-03-29T10:14:04.883Z,5.35
2023-03-29T10:16:36.440Z,5.03
2023-03-29T10:19:16.875Z,5.10
2023-03-29T10:21:43.377Z,5.20
2023-03-29T10:24:10.206Z,5.03
2023-03-29T10:26:38.872Z,5.07
2023-03-29T10:29:07.177Z,5.10
2023-03-29T10:31:36.605Z,4.30
2023-03-29T10:34:04.709Z,4.40
2023-03-29T10:36:31.149Z,4.63
2023-03-29T10:38:59.116Z,4.57
2023-03-29T10:41:27.094Z,4.88
2023-03-29T10:43:54.219Z,4.47
2023-03-29T10:46:22.741Z,5.13
2023-03-29T10:48:51.303Z,4.35
2023-03-29T10:51:18.770Z,4.63
2023-03-29T10:53:45.390Z,4.25
2023-03-29T10:56:24.449Z,4.70
2023-03-29T10:59:09.301Z,4.82
2023-03-29T11:01:54.385Z,4.38
2023-03-29T11:04:27.011Z,4.13
2023-03-29T11:06:59.585Z,3.80
2023-03-29T11:09:35.421Z,3.97
2023-03-29T11:12:21.062Z,4.18
2023-03-29T11:14:53.878Z,4.28
2023-03-29T11:17:23.157Z,5.35
2023-03-29T11:20:08.302Z,4.93
2023-03-29T11:22:44.380Z,3.90
2023-03-29T11:25:49.247Z,4.50
2023-03-29T11:28:45.010Z,4.30
2023-03-29T11:31:23.943Z,3.78
2023-03-29T11:33:55.673Z,4.25
2023-03-29T11:36:28.300Z,3.78
2023-03-29T11:39:13.156Z,3.70
2023-03-29T11:41:42.168Z,4.13
2023-03-29T11:44:17.587Z,4.20
2023-03-29T11:46:46.714Z,4.10
2023-03-29T11:49:28.246Z,4.07
2023-03-29T11:52:00.917Z,3.92
2023-03-29T11:54:31.104Z,3.78
2023-03-29T11:57:01.681Z,3.85
2023-03-29T11:59:37.769Z,4.22
2023-03-29T12:02:10.120Z,3.97
2023-03-29T12:04:41.905Z,3.67
2023-03-29T12:07:17.827Z,3.75
2023-03-29T12:09:51.847Z,3.75
2023-03-29T12:12:23.368Z,3.40
2023-03-29T12:14:59.855Z,3.70
2023-03-29T12:17:45.460Z,4.18
2023-03-29T12:20:23.405Z,3.63
2023-03-29T12:22:51.043Z,3.72
2023-03-29T12:25:21.933Z,3.20
2023-03-29T12:28:12.060Z,3.13
2023-03-29T12:30:41.403Z,3.35
2023-03-29T12:33:30.699Z,3.05
2023-03-29T12:36:45.097Z,2.88
2023-03-29T12:39:31.354Z,2.65
2023-03-29T12:42:17.660Z,2.90
2023-03-29T12:44:59.737Z,2.67
2023-03-29T12:47:32.442Z,2.53
2023-03-29T12:49:59.629Z,2.60
2023-03-29T12:52:33.754Z,2.65
2023-03-29T12:55:01.554Z,2.45
2023-03-29T12:57:44.977Z,2.80
2023-03-29T13:00:26.516Z,2.17
2023-03-29T13:03:04.660Z,2.50
2023-03-29T13:05:35.082Z,2.75
2023-03-29T13:08:31.361Z,2.45
2023-03-29T13:10:57.870Z,2.30
2023-03-29T13:13:36.167Z,2.40
2023-03-29T13:16:10.497Z,1.65
2023-03-29T13:18:52.127Z,1.60
2023-03-29T13:21:33.950Z,1.98
2023-03-29T13:24:20.853Z,1.85
2023-03-29T13:26:50.429Z,1.80
2023-03-29T13:29:42.630Z,2.13
2023-03-29T13:32:36.036Z,1.73
2023-03-29T13:35:21.549Z,2.00
2023-03-29T13:38:05.408Z,2.00
2023-03-29T13:40:32.843Z,2.17
2023-03-29T13:43:01.125Z,1.83
2023-03-29T13:45:29.245Z,1.65
2023-03-29T13:48:05.537Z,1.90
2023-03-29T13:50:39.981Z,2.13
2023-03-29T13:53:10.814Z,1.67
2023-03-29T13:55:42.876Z,1.38
2023-03-29T13:58:14.573Z,1.48
2023-03-29T14:00:54.022Z,1.48
2023-03-29T14:03:22.110Z,1.23
2023-03-29T14:05:51.277Z,1.50
2023-03-29T14:08:32.379Z,1.40
2023-03-29T14:11:04.406Z,1.70
2023-03-29T14:13:31.150Z,1.55
2023-03-29T14:16:05.106Z,1.88
2023-03-29T14:18:37.474Z,1.25
2023-03-29T14:21:04.378Z,1.73
2023-03-29T14:23:32.789Z,1.67
2023-03-29T14:26:10.594Z,1.70
2023-03-29T14:28:37.526Z,1.80
2023-03-29T14:31:04.072Z,1.75
2023-03-29T14:33:34.340Z,1.67
2023-03-29T14:36:03.601Z,2.00
2023-03-29T14:38:31.361Z,1.45
2023-03-29T14:41:01.691Z,1.52
2023-03-29T14:43:30.906Z,1.48
2023-03-29T14:45:58.154Z,2.00
2023-03-29T14:48:24.782Z,1.60
2023-03-29T14:50:51.513Z,1.85
2023-03-29T14:53:22.770Z,1.90
2023-03-29T14:55:51.672Z,1.80
2023-03-29T14:58:34.875Z,1.50
2023-03-29T15:01:07.959Z,1.52
2023-03-29T15:03:44.792Z,1.40
2023-03-29T15:06:12.193Z,1.73
2023-03-29T15:08:41.485Z,1.55
2023-03-29T15:11:14.332Z,1.42
2023-03-29T15:13:42.421Z,1.65
2023-03-29T15:16:09.467Z,1.33
2023-03-29T15:18:40.603Z,1.90
2023-03-29T15:21:07.884Z,1.60
2023-03-29T15:23:35.674Z,1.83
2023-03-29T15:26:22.366Z,1.50
2023-03-29T15:28:48.868Z,1.73
2023-03-29T15:31:18.235Z,1.45
2023-03-29T15:33:45.577Z,1.90
2023-03-29T15:36:13.032Z,1.70
2023-03-29T15:38:44.504Z,1.83
2023-03-29T15:41:13.406Z,1.80
2023-03-29T15:43:39.980Z,1.50
2023-03-29T15:46:06.619Z,2.25
2023-03-29T15:48:33.777Z,1.95
2023-03-29T15:51:03.956Z,1.60
2023-03-29T15:53:32.312Z,2.03
2023-03-29T15:56:00.196Z,1.77
2023-03-29T15:58:28.795Z,1.67
2023-03-29T16:00:59.120Z,1.90
2023-03-29T16:03:27.349Z,1.55
2023-03-29T16:05:56.838Z,1.70
2023-03-29T16:08:24.736Z,1.73
2023-03-29T16:10:51.523Z,1.55
2023-03-29T16:13:18.021Z,1.77
2023-03-29T16:15:44.512Z,2.22
2023-03-29T16:18:10.991Z,1.60
2023-03-29T16:20:38.282Z,1.40
2023-03-29T16:23:09.267Z,1.70
2023-03-29T16:25:37.533Z,1.65
2023-03-29T16:28:05.317Z,1.60
2023-03-29T16:30:32.009Z,1.70
2023-03-29T16:32:58.591Z,1.80
2023-03-29T16:35:27.064Z,2.55
2023-03-29T16:37:53.766Z,2.25
2023-03-29T16:40:21.030Z,2.00
2023-03-29T16:42:47.875Z,2.03
2023-03-29T16:45:14.810Z,2.10
2023-03-29T16:47:44.646Z,1.85
2023-03-29T16:50:12.691Z,1.85
2023-03-29T16:52:39.329Z,1.73
2023-03-29T16:55:06.337Z,2.17
2023-03-29T16:57:33.445Z,2.00
2023-03-29T16:59:59.960Z,2.50
2023-03-29T17:02:26.637Z,2.60
2023-03-29T17:04:53.220Z,2.20
2023-03-29T17:07:19.712Z,2.10
2023-03-29T17:09:46.300Z,1.90
2023-03-29T17:12:12.850Z,1.90
2023-03-29T17:14:39.577Z,1.80
2023-03-29T17:17:06.026Z,1.88
2023-03-29T17:19:32.744Z,2.40
2023-03-29T17:21:59.213Z,3.05
2023-03-29T17:24:25.781Z,3.28
2023-03-29T17:26:52.208Z,2.78
2023-03-29T17:29:18.636Z,3.10
2023-03-29T17:31:48.278Z,3.58
2023-03-29T17:34:15.666Z,3.30
2023-03-29T17:36:42.198Z,2.78
2023-03-29T17:39:09.588Z,3.00
2023-03-29T17:41:36.148Z,3.08
2023-03-29T17:44:02.665Z,4.10
2023-03-29T17:46:29.247Z,2.90
2023-03-29T17:48:56.176Z,2.60
2023-03-29T17:51:23.697Z,2.70
2023-03-29T17:53:52.384Z,2.75
2023-03-29T17:56:22.828Z,4.38
2023-03-29T17:58:49.761Z,5.07
2023-03-29T18:01:19.543Z,3.63
2023-03-29T18:03:47.730Z,4.30
2023-03-29T18:06:16.423Z,3.20
2023-03-29T18:08:42.843Z,4.85
2023-03-29T18:11:15.537Z,3.75
2023-03-29T18:13:44.066Z,3.90
2023-03-29T18:16:10.948Z,3.58
2023-03-29T18:18:38.123Z,3.13
2023-03-29T18:21:06.889Z,2.90
2023-03-29T18:23:33.834Z,2.72
2023-03-29T18:26:02.851Z,2.77
2023-03-29T18:28:29.907Z,2.78
2023-03-29T18:30:56.515Z,2.63
2023-03-29T18:33:22.962Z,2.75
2023-03-29T18:35:51.148Z,2.33
2023-03-29T18:38:18.543Z,2.22
2023-03-29T18:40:46.623Z,2.90
2023-03-29T18:43:13.182Z,4.00
2023-03-29T18:45:39.676Z,4.70
2023-03-29T18:48:08.240Z,3.22
2023-03-29T18:50:34.938Z,3.28
2023-03-29T18:53:01.585Z,2.75
2023-03-29T18:55:28.394Z,2.53
2023-03-29T18:57:54.892Z,3.30
2023-03-29T19:00:21.346Z,2.88
2023-03-29T19:02:47.928Z,2.78
2023-03-29T19:05:14.542Z,2.22
2023-03-29T19:07:40.971Z,2.03
2023-03-29T19:10:08.316Z,2.55
2023-03-29T19:12:35.303Z,2.40
2023-03-29T19:15:01.867Z,2.33
2023-03-29T19:17:28.562Z,2.20
2023-03-29T19:19:56.506Z,2.38
2023-03-29T19:22:23.037Z,2.42
2023-03-29T19:24:49.579Z,2.60
2023-03-29T19:27:16.058Z,2.55
2023-03-29T19:29:42.552Z,2.33
2023-03-29T19:32:09.013Z,2.33
2023-03-29T19:34:35.572Z,2.40
2023-03-29T19:37:02.288Z,2.58
2023-03-29T19:39:29.745Z,2.35
2023-03-29T19:41:56.416Z,2.60
2023-03-29T19:44:25.597Z,2.70
2023-03-29T19:46:52.165Z,2.40
2023-03-29T19:49:18.764Z,2.67
2023-03-29T19:51:45.297Z,2.22
2023-03-29T19:54:14.764Z,2.40
2023-03-29T19:56:43.100Z,2.75
2023-03-29T19:59:11.071Z,2.92
2023-03-29T20:01:39.417Z,2.50
2023-03-29T20:04:06.315Z,2.78
2023-03-29T20:06:32.898Z,2.78
2023-03-29T20:08:59.418Z,3.22
2023-03-29T20:11:26.046Z,2.60
2023-03-29T20:13:52.636Z,3.33
2023-03-29T20:16:19.396Z,2.53
2023-03-29T20:18:46.484Z,3.20
2023-03-29T20:21:13.994Z,3.53
2023-03-29T20:23:40.671Z,3.20
2023-03-29T20:26:07.596Z,3.58
2023-03-29T20:28:34.611Z,3.38
2023-03-29T20:31:05.302Z,3.53
2023-03-29T20:33:31.876Z,3.25
2023-03-29T20:35:58.677Z,3.13
2023-03-29T20:38:25.204Z,3.50
2023-03-29T20:40:51.687Z,3.30
2023-03-29T20:43:21.115Z,3.70
2023-03-29T20:45:53.790Z,3.58
2023-03-29T20:48:23.062Z,3.30
2023-03-29T20:50:50.496Z,2.97
2023-03-29T20:53:18.236Z,3.35
2023-03-29T20:55:45.027Z,3.45
2023-03-29T20:58:11.710Z,4.68
2023-03-29T21:00:38.276Z,3.70
2023-03-29T21:03:05.010Z,3.60
2023-03-29T21:05:32.818Z,3.47
2023-03-29T21:07:59.499Z,3.38
2023-03-29T21:10:26.692Z,3.00
2023-03-29T21:12:54.299Z,3.65
2023-03-29T21:15:20.962Z,3.85
2023-03-29T21:17:50.458Z,3.50
2023-03-29T21:20:17.007Z,3.92
2023-03-29T21:22:43.424Z,3.25
2023-03-29T21:25:11.038Z,3.42
2023-03-29T21:27:37.995Z,3.83
2023-03-29T21:30:05.546Z,3.97
2023-03-29T21:32:32.104Z,3.83
2023-03-29T21:34:58.547Z,4.28
2023-03-29T21:37:25.092Z,4.07
2023-03-29T21:39:51.692Z,4.13
2023-03-29T21:42:18.153Z,4.65
2023-03-29T21:44:44.940Z,4.60
2023-03-29T21:47:11.516Z,3.90
2023-03-29T21:49:38.027Z,4.22
2023-03-29T21:52:04.479Z,4.28
2023-03-29T21:54:30.950Z,4.57
2023-03-29T21:56:57.364Z,4.25
2023-03-29T21:59:23.905Z,4.05
2023-03-29T22:01:50.379Z,4.05
2023-03-29T22:04:29.233Z,3.83
2023-03-29T22:07:02.664Z,4.07
2023-03-29T22:09:29.144Z,4.68
2023-03-29T22:11:55.591Z,4.22
2023-03-29T22:14:22.058Z,4.63
2023-03-29T22:16:48.615Z,4.10
2023-03-29T22:19:15.102Z,3.80
2023-03-29T22:21:41.550Z,3.75
2023-03-29T22:24:08.036Z,4.00
2023-03-29T22:26:34.584Z,3.90
2023-03-29T22:29:01.527Z,3.58
2023-03-29T22:31:28.839Z,3.97
2023-03-29T22:33:55.618Z,3.83
2023-03-29T22:36:29.371Z,3.75
2023-03-29T22:38:55.940Z,3.30
2023-03-29T22:41:27.574Z,4.07
2023-03-29T22:43:55.276Z,3.63
2023-03-29T22:46:22.246Z,3.97
2023-03-29T22:48:48.896Z,3.85
2023-03-29T22:51:16.192Z,3.40
2023-03-29T22:53:42.666Z,3.67
2023-03-29T22:56:09.216Z,3.58
2023-03-29T22:58:36.325Z,3.28
2023-03-29T23:01:03.336Z,3.75
2023-03-29T23:03:29.972Z,3.65
2023-03-29T23:05:57.917Z,3.35
2023-03-29T23:08:24.852Z,3.38
2023-03-29T23:10:51.627Z,3.55
2023-03-29T23:13:24.052Z,3.35
2023-03-29T23:15:50.951Z,3.50
2023-03-29T23:18:21.419Z,3.22
2023-03-29T23:20:48.728Z,3.67
2023-03-29T23:23:16.085Z,3.42
2023-03-29T23:25:45.645Z,3.58
2023-03-29T23:28:12.684Z,3.20
2023-03-29T23:30:39.163Z,3.17
2023-03-29T23:33:05.854Z,2.88
2023-03-29T23:35:32.325Z,3.22
2023-03-29T23:37:59.711Z,3.60
2023-03-29T23:40:27.677Z,3.47
2023-03-29T23:42:59.334Z,3.20
2023-03-29T23:45:29.105Z,2.97
2023-03-29T23:47:56.106Z,3.50
2023-03-29T23:50:22.984Z,3.00
2023-03-29T23:52:49.675Z,3.03
2023-03-29T23:55:16.164Z,3.05
2023-03-29T23:57:42.737Z,3.13
